Terminal Aerodrome Forecast
Issued by NWS Wichita, KS

Home | Current Version | Previous Version | Graphics & Text | Print | Product List | Glossary On
Versions: 1 2 3 4 5 6 7 8 9 10 11 12 13 14 15 16 17 18 19 20 21
000
FTUS43 KICT 221700
TAFICT
TAF
KICT 221720Z 2218/2318 10007KT P6SM SCT250
     FM222000 15012KT P6SM SCT100
     FM230600 15012KT P6SM BKN100
     FM231400 17012G22KT P6SM SCT035 BKN120=

USA.gov is the U.S. government's official web portal to all federal, state and local government web resources and services.